sensor_id;sensor_type;location;lat;lon;timestamp;temperature;humidity
9820;DHT22;4949;48.482;9.206;2024-01-30T00:02:14;4.70;92.00
9820;DHT22;4949;48.482;9.206;2024-01-30T00:07:21;4.90;92.50
9820;DHT22;4949;48.482;9.206;2024-01-30T00:12:22;4.90;92.60
9820;DHT22;4949;48.482;9.206;2024-01-30T00:17:23;4.80;92.70
9820;DHT22;4949;48.482;9.206;2024-01-30T00:22:25;5.10;93.10
9820;DHT22;4949;48.482;9.206;2024-01-30T00:27:30;4.70;93.00
9820;DHT22;4949;48.482;9.206;2024-01-30T00:32:31;4.60;93.20
9820;DHT22;4949;48.482;9.206;2024-01-30T00:37:34;4.50;93.40
9820;DHT22;4949;48.482;9.206;2024-01-30T00:42:35;4.40;93.60
9820;DHT22;4949;48.482;9.206;2024-01-30T00:47:36;4.40;93.70
9820;DHT22;4949;48.482;9.206;2024-01-30T00:52:42;4.40;93.70
9820;DHT22;4949;48.482;9.206;2024-01-30T00:57:45;4.40;93.90
9820;DHT22;4949;48.482;9.206;2024-01-30T01:02:46;4.30;93.90
9820;DHT22;4949;48.482;9.206;2024-01-30T01:07:46;4.30;94.10
9820;DHT22;4949;48.482;9.206;2024-01-30T01:12:51;4.20;94.20
9820;DHT22;4949;48.482;9.206;2024-01-30T01:17:52;4.60;94.40
9820;DHT22;4949;48.482;9.206;2024-01-30T01:22:52;4.20;94.40
9820;DHT22;4949;48.482;9.206;2024-01-30T01:27:58;4.20;94.40
9820;DHT22;4949;48.482;9.206;2024-01-30T01:33:01;4.10;94.50
9820;DHT22;4949;48.482;9.206;2024-01-30T01:38:02;4.10;94.60
9820;DHT22;4949;48.482;9.206;2024-01-30T01:43:06;4.00;94.70
9820;DHT22;4949;48.482;9.206;2024-01-30T01:48:07;4.00;94.80
9820;DHT22;4949;48.482;9.206;2024-01-30T01:53:08;4.30;94.80
9820;DHT22;4949;48.482;9.206;2024-01-30T01:58:10;3.90;94.70
9820;DHT22;4949;48.482;9.206;2024-01-30T02:03:13;4.00;94.80
9820;DHT22;4949;48.482;9.206;2024-01-30T02:08:18;3.90;94.60
9820;DHT22;4949;48.482;9.206;2024-01-30T02:13:21;3.80;95.00
9820;DHT22;4949;48.482;9.206;2024-01-30T02:18:24;3.80;95.00
9820;DHT22;4949;48.482;9.206;2024-01-30T02:23:26;4.00;95.20
9820;DHT22;4949;48.482;9.206;2024-01-30T02:28:27;3.50;95.20
9820;DHT22;4949;48.482;9.206;2024-01-30T02:33:28;3.60;95.30
9820;DHT22;4949;48.482;9.206;2024-01-30T02:38:28;3.60;95.20
9820;DHT22;4949;48.482;9.206;2024-01-30T02:43:34;3.60;95.20
9820;DHT22;4949;48.482;9.206;2024-01-30T02:48:34;3.50;95.30
9820;DHT22;4949;48.482;9.206;2024-01-30T02:53:39;3.40;95.30
9820;DHT22;4949;48.482;9.206;2024-01-30T02:58:40;3.30;95.60
9820;DHT22;4949;48.482;9.206;2024-01-30T03:03:44;3.70;95.70
9820;DHT22;4949;48.482;9.206;2024-01-30T03:08:45;3.30;95.70
9820;DHT22;4949;48.482;9.206;2024-01-30T03:13:48;3.30;95.80
9820;DHT22;4949;48.482;9.206;2024-01-30T03:18:49;3.70;95.80
9820;DHT22;4949;48.482;9.206;2024-01-30T03:23:50;2.90;95.60
9820;DHT22;4949;48.482;9.206;2024-01-30T03:28:51;3.00;95.90
9820;DHT22;4949;48.482;9.206;2024-01-30T03:33:54;3.00;96.10
9820;DHT22;4949;48.482;9.206;2024-01-30T03:38:55;3.00;96.10
9820;DHT22;4949;48.482;9.206;2024-01-30T03:44:00;2.80;95.90
9820;DHT22;4949;48.482;9.206;2024-01-30T03:49:00;3.00;96.00
9820;DHT22;4949;48.482;9.206;2024-01-30T03:54:01;2.80;96.00
9820;DHT22;4949;48.482;9.206;2024-01-30T03:59:02;2.80;96.10
9820;DHT22;4949;48.482;9.206;2024-01-30T04:04:03;2.80;96.00
9820;DHT22;4949;48.482;9.206;2024-01-30T04:09:04;2.80;96.40
9820;DHT22;4949;48.482;9.206;2024-01-30T04:14:07;2.70;96.00
9820;DHT22;4949;48.482;9.206;2024-01-30T04:19:08;2.70;96.10
9820;DHT22;4949;48.482;9.206;2024-01-30T04:24:09;2.60;96.20
9820;DHT22;4949;48.482;9.206;2024-01-30T04:29:09;2.50;96.30
9820;DHT22;4949;48.482;9.206;2024-01-30T04:34:10;2.50;96.50
9820;DHT22;4949;48.482;9.206;2024-01-30T04:39:11;2.50;96.20
9820;DHT22;4949;48.482;9.206;2024-01-30T04:44:13;2.50;96.50
9820;DHT22;4949;48.482;9.206;2024-01-30T04:49:16;2.20;96.30
9820;DHT22;4949;48.482;9.206;2024-01-30T04:54:19;2.50;96.30
9820;DHT22;4949;48.482;9.206;2024-01-30T04:59:20;2.70;96.50
9820;DHT22;4949;48.482;9.206;2024-01-30T05:04:23;2.10;96.40
9820;DHT22;4949;48.482;9.206;2024-01-30T05:09:23;2.40;96.70
9820;DHT22;4949;48.482;9.206;2024-01-30T05:14:26;2.40;96.60
9820;DHT22;4949;48.482;9.206;2024-01-30T05:19:27;2.50;96.70
9820;DHT22;4949;48.482;9.206;2024-01-30T05:24:28;2.50;96.70
9820;DHT22;4949;48.482;9.206;2024-01-30T05:29:29;2.40;97.00
9820;DHT22;4949;48.482;9.206;2024-01-30T05:34:32;2.30;96.80
9820;DHT22;4949;48.482;9.206;2024-01-30T05:39:33;2.70;97.10
9820;DHT22;4949;48.482;9.206;2024-01-30T05:44:36;2.20;96.80
9820;DHT22;4949;48.482;9.206;2024-01-30T05:49:37;2.60;97.00
9820;DHT22;4949;48.482;9.206;2024-01-30T05:54:41;2.60;96.80
9820;DHT22;4949;48.482;9.206;2024-01-30T05:59:45;2.60;96.80
9820;DHT22;4949;48.482;9.206;2024-01-30T06:04:48;2.20;96.90
9820;DHT22;4949;48.482;9.206;2024-01-30T06:09:49;2.60;97.10
9820;DHT22;4949;48.482;9.206;2024-01-30T06:14:52;2.60;97.00
9820;DHT22;4949;48.482;9.206;2024-01-30T06:19:54;2.20;96.90
9820;DHT22;4949;48.482;9.206;2024-01-30T06:24:55;2.20;96.90
9820;DHT22;4949;48.482;9.206;2024-01-30T06:29:56;2.10;96.90
9820;DHT22;4949;48.482;9.206;2024-01-30T06:34:59;2.50;97.20
9820;DHT22;4949;48.482;9.206;2024-01-30T06:40:02;2.00;97.00
9820;DHT22;4949;48.482;9.206;2024-01-30T06:45:05;2.10;97.20
9820;DHT22;4949;48.482;9.206;2024-01-30T06:50:06;1.50;97.20
9820;DHT22;4949;48.482;9.206;2024-01-30T06:55:10;2.00;97.30
9820;DHT22;4949;48.482;9.206;2024-01-30T07:00:11;2.40;97.40
9820;DHT22;4949;48.482;9.206;2024-01-30T07:05:13;2.00;97.30
9820;DHT22;4949;48.482;9.206;2024-01-30T07:10:14;2.00;97.50
9820;DHT22;4949;48.482;9.206;2024-01-30T07:15:18;2.00;97.60
9820;DHT22;4949;48.482;9.206;2024-01-30T07:20:23;2.10;97.60
9820;DHT22;4949;48.482;9.206;2024-01-30T07:25:24;2.10;97.60
9820;DHT22;4949;48.482;9.206;2024-01-30T07:30:29;2.10;97.60
9820;DHT22;4949;48.482;9.206;2024-01-30T07:35:32;2.10;97.50
9820;DHT22;4949;48.482;9.206;2024-01-30T07:40:35;2.00;97.60
9820;DHT22;4949;48.482;9.206;2024-01-30T07:45:36;2.10;97.80
9820;DHT22;4949;48.482;9.206;2024-01-30T07:50:38;2.10;97.70
9820;DHT22;4949;48.482;9.206;2024-01-30T07:55:39;2.20;97.80
9820;DHT22;4949;48.482;9.206;2024-01-30T08:00:40;2.30;97.70
9820;DHT22;4949;48.482;9.206;2024-01-30T08:05:45;2.40;97.90
9820;DHT22;4949;48.482;9.206;2024-01-30T08:10:48;2.50;97.70
9820;DHT22;4949;48.482;9.206;2024-01-30T08:15:52;2.90;97.80
9820;DHT22;4949;48.482;9.206;2024-01-30T08:20:53;2.60;97.60
9820;DHT22;4949;48.482;9.206;2024-01-30T08:25:54;3.00;97.50
9820;DHT22;4949;48.482;9.206;2024-01-30T08:30:57;2.90;97.20
9820;DHT22;4949;48.482;9.206;2024-01-30T08:35:58;2.70;97.00
9820;DHT22;4949;48.482;9.206;2024-01-30T08:41:01;3.40;96.90
9820;DHT22;4949;48.482;9.206;2024-01-30T08:46:03;3.60;96.70
9820;DHT22;4949;48.482;9.206;2024-01-30T08:51:04;3.30;96.40
9820;DHT22;4949;48.482;9.206;2024-01-30T08:56:08;3.50;96.40
9820;DHT22;4949;48.482;9.206;2024-01-30T09:01:09;4.00;96.40
9820;DHT22;4949;48.482;9.206;2024-01-30T09:06:10;4.00;96.30
9820;DHT22;4949;48.482;9.206;2024-01-30T09:11:14;4.00;96.10
9820;DHT22;4949;48.482;9.206;2024-01-30T09:16:15;4.10;96.00
9820;DHT22;4949;48.482;9.206;2024-01-30T09:21:19;4.20;95.80
9820;DHT22;4949;48.482;9.206;2024-01-30T09:26:20;4.30;95.80
9820;DHT22;4949;48.482;9.206;2024-01-30T09:31:20;4.50;95.80
9820;DHT22;4949;48.482;9.206;2024-01-30T09:36:21;4.60;95.80
9820;DHT22;4949;48.482;9.206;2024-01-30T09:41:24;4.70;95.70
9820;DHT22;4949;48.482;9.206;2024-01-30T09:46:27;4.90;95.80
9820;DHT22;4949;48.482;9.206;2024-01-30T09:51:29;5.30;95.80
9820;DHT22;4949;48.482;9.206;2024-01-30T09:56:29;5.20;95.50
9820;DHT22;4949;48.482;9.206;2024-01-30T10:01:31;5.40;95.40
9820;DHT22;4949;48.482;9.206;2024-01-30T10:06:32;5.60;95.20
9820;DHT22;4949;48.482;9.206;2024-01-30T10:11:33;5.70;95.10
9820;DHT22;4949;48.482;9.206;2024-01-30T10:16:34;5.90;95.20
9820;DHT22;4949;48.482;9.206;2024-01-30T10:21:35;6.40;95.10
9820;DHT22;4949;48.482;9.206;2024-01-30T10:26:38;6.20;94.60
9820;DHT22;4949;48.482;9.206;2024-01-30T10:31:43;6.40;94.40
9820;DHT22;4949;48.482;9.206;2024-01-30T10:36:46;6.60;94.50
9820;DHT22;4949;48.482;9.206;2024-01-30T10:41:53;6.70;94.30
9820;DHT22;4949;48.482;9.206;2024-01-30T10:47:01;7.30;94.20
9820;DHT22;4949;48.482;9.206;2024-01-30T10:52:08;7.40;93.50
9820;DHT22;4949;48.482;9.206;2024-01-30T10:57:13;7.50;93.20
9820;DHT22;4949;48.482;9.206;2024-01-30T11:02:16;7.40;92.30
9820;DHT22;4949;48.482;9.206;2024-01-30T11:07:18;7.70;91.90
9820;DHT22;4949;48.482;9.206;2024-01-30T11:12:25;7.80;91.30
9820;DHT22;4949;48.482;9.206;2024-01-30T11:17:27;8.40;91.60
9820;DHT22;4949;48.482;9.206;2024-01-30T11:22:33;8.10;91.50
9820;DHT22;4949;48.482;9.206;2024-01-30T11:27:34;8.20;91.30
9820;DHT22;4949;48.482;9.206;2024-01-30T11:32:35;8.40;91.30
9820;DHT22;4949;48.482;9.206;2024-01-30T11:37:37;8.50;90.70
9820;DHT22;4949;48.482;9.206;2024-01-30T11:42:41;8.60;90.60
9820;DHT22;4949;48.482;9.206;2024-01-30T11:47:43;8.70;90.20
9820;DHT22;4949;48.482;9.206;2024-01-30T11:52:47;8.80;89.50
9820;DHT22;4949;48.482;9.206;2024-01-30T11:57:48;9.00;87.50
9820;DHT22;4949;48.482;9.206;2024-01-30T12:02:54;9.20;85.50
9820;DHT22;4949;48.482;9.206;2024-01-30T12:08:00;9.70;86.40
9820;DHT22;4949;48.482;9.206;2024-01-30T12:13:03;9.70;85.90
9820;DHT22;4949;48.482;9.206;2024-01-30T12:18:08;9.90;84.40
9820;DHT22;4949;48.482;9.206;2024-01-30T12:23:09;10.10;83.20
9820;DHT22;4949;48.482;9.206;2024-01-30T12:28:12;10.20;82.70
9820;DHT22;4949;48.482;9.206;2024-01-30T12:33:17;10.30;82.70
9820;DHT22;4949;48.482;9.206;2024-01-30T12:38:21;10.50;82.70
9820;DHT22;4949;48.482;9.206;2024-01-30T12:43:25;10.50;81.10
9820;DHT22;4949;48.482;9.206;2024-01-30T12:48:26;10.80;81.10
9820;DHT22;4949;48.482;9.206;2024-01-30T12:53:29;10.80;79.50
9820;DHT22;4949;48.482;9.206;2024-01-30T12:58:35;11.00;79.60
9820;DHT22;4949;48.482;9.206;2024-01-30T13:03:36;11.30;74.00
9820;DHT22;4949;48.482;9.206;2024-01-30T13:08:37;11.50;74.20
9820;DHT22;4949;48.482;9.206;2024-01-30T13:13:40;11.70;73.20
9820;DHT22;4949;48.482;9.206;2024-01-30T13:18:44;12.00;71.70
9820;DHT22;4949;48.482;9.206;2024-01-30T13:23:45;12.00;70.00
9820;DHT22;4949;48.482;9.206;2024-01-30T13:28:45;12.00;69.30
9820;DHT22;4949;48.482;9.206;2024-01-30T13:33:46;12.40;70.20
9820;DHT22;4949;48.482;9.206;2024-01-30T13:38:47;12.10;69.40
9820;DHT22;4949;48.482;9.206;2024-01-30T13:43:48;12.40;69.50
9820;DHT22;4949;48.482;9.206;2024-01-30T13:48:50;12.20;68.00
9820;DHT22;4949;48.482;9.206;2024-01-30T13:53:51;12.20;67.60
9820;DHT22;4949;48.482;9.206;2024-01-30T13:58:52;12.30;66.30
9820;DHT22;4949;48.482;9.206;2024-01-30T14:03:57;12.30;66.60
9820;DHT22;4949;48.482;9.206;2024-01-30T14:08:57;12.40;66.90
9820;DHT22;4949;48.482;9.206;2024-01-30T14:13:59;12.50;67.60
9820;DHT22;4949;48.482;9.206;2024-01-30T14:19:02;12.60;67.20
9820;DHT22;4949;48.482;9.206;2024-01-30T14:24:05;12.70;65.00
9820;DHT22;4949;48.482;9.206;2024-01-30T14:29:08;12.80;65.30
9820;DHT22;4949;48.482;9.206;2024-01-30T14:34:09;13.00;63.10
9820;DHT22;4949;48.482;9.206;2024-01-30T14:39:13;13.00;63.10
9820;DHT22;4949;48.482;9.206;2024-01-30T14:44:16;13.10;62.20
9820;DHT22;4949;48.482;9.206;2024-01-30T14:49:19;13.20;62.40
9820;DHT22;4949;48.482;9.206;2024-01-30T14:54:21;13.30;62.20
9820;DHT22;4949;48.482;9.206;2024-01-30T14:59:22;13.30;61.60
9820;DHT22;4949;48.482;9.206;2024-01-30T15:04:25;13.30;61.70
9820;DHT22;4949;48.482;9.206;2024-01-30T15:09:26;13.30;61.30
9820;DHT22;4949;48.482;9.206;2024-01-30T15:14:29;13.30;61.90
9820;DHT22;4949;48.482;9.206;2024-01-30T15:19:30;13.30;62.50
9820;DHT22;4949;48.482;9.206;2024-01-30T15:24:33;13.30;62.80
9820;DHT22;4949;48.482;9.206;2024-01-30T15:29:34;13.20;63.70
9820;DHT22;4949;48.482;9.206;2024-01-30T15:34:34;13.10;64.20
9820;DHT22;4949;48.482;9.206;2024-01-30T15:39:37;13.00;63.20
9820;DHT22;4949;48.482;9.206;2024-01-30T15:44:38;13.00;62.90
9820;DHT22;4949;48.482;9.206;2024-01-30T15:49:44;13.00;63.20
9820;DHT22;4949;48.482;9.206;2024-01-30T15:54:46;12.90;63.90
9820;DHT22;4949;48.482;9.206;2024-01-30T15:59:48;12.80;64.30
9820;DHT22;4949;48.482;9.206;2024-01-30T16:04:48;12.70;65.40
9820;DHT22;4949;48.482;9.206;2024-01-30T16:09:49;12.70;67.20
9820;DHT22;4949;48.482;9.206;2024-01-30T16:14:53;12.60;67.70
9820;DHT22;4949;48.482;9.206;2024-01-30T16:19:54;12.60;68.80
9820;DHT22;4949;48.482;9.206;2024-01-30T16:24:54;12.40;69.60
9820;DHT22;4949;48.482;9.206;2024-01-30T16:29:55;12.20;71.20
9820;DHT22;4949;48.482;9.206;2024-01-30T16:34:56;12.20;71.60
9820;DHT22;4949;48.482;9.206;2024-01-30T16:40:01;12.10;71.50
9820;DHT22;4949;48.482;9.206;2024-01-30T16:45:02;12.00;71.60
9820;DHT22;4949;48.482;9.206;2024-01-30T16:50:04;11.80;72.10
9820;DHT22;4949;48.482;9.206;2024-01-30T16:55:10;11.80;72.40
9820;DHT22;4949;48.482;9.206;2024-01-30T17:00:11;11.60;73.20
9820;DHT22;4949;48.482;9.206;2024-01-30T17:05:12;11.50;73.80
9820;DHT22;4949;48.482;9.206;2024-01-30T17:10:13;11.40;75.10
9820;DHT22;4949;48.482;9.206;2024-01-30T17:15:16;11.30;75.60
9820;DHT22;4949;48.482;9.206;2024-01-30T17:20:22;11.30;76.40
9820;DHT22;4949;48.482;9.206;2024-01-30T17:25:23;11.10;77.40
9820;DHT22;4949;48.482;9.206;2024-01-30T17:30:29;11.40;77.50
9820;DHT22;4949;48.482;9.206;2024-01-30T17:35:29;11.00;77.90
9820;DHT22;4949;48.482;9.206;2024-01-30T17:40:30;11.00;78.50
9820;DHT22;4949;48.482;9.206;2024-01-30T17:45:32;10.90;79.00
9820;DHT22;4949;48.482;9.206;2024-01-30T17:50:40;10.90;78.70
9820;DHT22;4949;48.482;9.206;2024-01-30T17:55:40;11.10;79.50
9820;DHT22;4949;48.482;9.206;2024-01-30T18:00:44;10.70;80.00
9820;DHT22;4949;48.482;9.206;2024-01-30T18:05:47;10.70;80.60
9820;DHT22;4949;48.482;9.206;2024-01-30T18:10:48;10.60;80.80
9820;DHT22;4949;48.482;9.206;2024-01-30T18:15:51;10.60;81.30
9820;DHT22;4949;48.482;9.206;2024-01-30T18:20:52;10.50;81.80
9820;DHT22;4949;48.482;9.206;2024-01-30T18:25:53;10.30;82.10
9820;DHT22;4949;48.482;9.206;2024-01-30T18:31:00;10.50;82.60
9820;DHT22;4949;48.482;9.206;2024-01-30T18:36:01;10.50;82.90
9820;DHT22;4949;48.482;9.206;2024-01-30T18:41:04;10.40;83.70
9820;DHT22;4949;48.482;9.206;2024-01-30T18:46:10;10.40;83.70
9820;DHT22;4949;48.482;9.206;2024-01-30T18:51:14;10.40;84.20
9820;DHT22;4949;48.482;9.206;2024-01-30T18:56:18;10.40;84.70
9820;DHT22;4949;48.482;9.206;2024-01-30T19:01:20;10.30;84.80
9820;DHT22;4949;48.482;9.206;2024-01-30T19:06:26;10.30;85.70
9820;DHT22;4949;48.482;9.206;2024-01-30T19:17:03;10.30;86.70
9820;DHT22;4949;48.482;9.206;2024-01-30T19:22:05;10.30;86.50
9820;DHT22;4949;48.482;9.206;2024-01-30T19:27:08;10.20;86.70
9820;DHT22;4949;48.482;9.206;2024-01-30T19:32:14;10.20;87.70
9820;DHT22;4949;48.482;9.206;2024-01-30T19:37:18;10.20;87.70
9820;DHT22;4949;48.482;9.206;2024-01-30T19:42:28;10.20;88.70
9820;DHT22;4949;48.482;9.206;2024-01-30T19:47:31;10.10;89.00
9820;DHT22;4949;48.482;9.206;2024-01-30T19:52:34;10.10;88.60
9820;DHT22;4949;48.482;9.206;2024-01-30T19:57:38;10.20;88.70
9820;DHT22;4949;48.482;9.206;2024-01-30T20:02:42;10.20;88.70
9820;DHT22;4949;48.482;9.206;2024-01-30T20:07:43;10.20;88.70
9820;DHT22;4949;48.482;9.206;2024-01-30T20:12:44;10.20;88.50
9820;DHT22;4949;48.482;9.206;2024-01-30T20:17:47;10.40;88.50
9820;DHT22;4949;48.482;9.206;2024-01-30T20:22:50;10.40;88.30
9820;DHT22;4949;48.482;9.206;2024-01-30T20:27:52;10.50;88.40
9820;DHT22;4949;48.482;9.206;2024-01-30T20:32:56;10.50;88.30
9820;DHT22;4949;48.482;9.206;2024-01-30T20:37:57;10.30;89.80
9820;DHT22;4949;48.482;9.206;2024-01-30T20:42:57;10.60;90.20
9820;DHT22;4949;48.482;9.206;2024-01-30T20:47:58;10.40;90.30
9820;DHT22;4949;48.482;9.206;2024-01-30T20:52:59;10.10;90.40
9820;DHT22;4949;48.482;9.206;2024-01-30T20:58:00;10.00;90.70
9820;DHT22;4949;48.482;9.206;2024-01-30T21:03:00;10.00;90.70
9820;DHT22;4949;48.482;9.206;2024-01-30T21:08:07;9.80;91.40
9820;DHT22;4949;48.482;9.206;2024-01-30T21:13:08;9.70;91.60
9820;DHT22;4949;48.482;9.206;2024-01-30T21:18:11;9.60;91.60
9820;DHT22;4949;48.482;9.206;2024-01-30T21:23:16;9.50;91.80
9820;DHT22;4949;48.482;9.206;2024-01-30T21:28:19;9.40;91.90
9820;DHT22;4949;48.482;9.206;2024-01-30T21:33:22;9.30;92.10
9820;DHT22;4949;48.482;9.206;2024-01-30T21:38:23;9.20;92.20
9820;DHT22;4949;48.482;9.206;2024-01-30T21:43:24;9.60;92.40
9820;DHT22;4949;48.482;9.206;2024-01-30T21:48:30;9.10;92.40
9820;DHT22;4949;48.482;9.206;2024-01-30T21:53:31;9.10;92.60
9820;DHT22;4949;48.482;9.206;2024-01-30T21:58:33;9.00;92.70
9820;DHT22;4949;48.482;9.206;2024-01-30T22:03:37;9.00;92.80
9820;DHT22;4949;48.482;9.206;2024-01-30T22:08:39;8.90;93.00
9820;DHT22;4949;48.482;9.206;2024-01-30T22:13:40;8.70;92.90
9820;DHT22;4949;48.482;9.206;2024-01-30T22:18:45;8.70;93.00
9820;DHT22;4949;48.482;9.206;2024-01-30T22:23:46;8.60;93.20
9820;DHT22;4949;48.482;9.206;2024-01-30T22:28:50;8.60;93.30
9820;DHT22;4949;48.482;9.206;2024-01-30T22:33:51;8.50;93.40
9820;DHT22;4949;48.482;9.206;2024-01-30T22:38:52;8.60;93.30
9820;DHT22;4949;48.482;9.206;2024-01-30T22:43:56;8.50;93.20
9820;DHT22;4949;48.482;9.206;2024-01-30T22:48:58;8.40;93.30
9820;DHT22;4949;48.482;9.206;2024-01-30T22:53:59;8.30;93.60
9820;DHT22;4949;48.482;9.206;2024-01-30T22:59:02;8.20;93.80
9820;DHT22;4949;48.482;9.206;2024-01-30T23:04:07;8.20;93.90
9820;DHT22;4949;48.482;9.206;2024-01-30T23:09:08;8.10;94.10
9820;DHT22;4949;48.482;9.206;2024-01-30T23:14:14;8.00;94.20
9820;DHT22;4949;48.482;9.206;2024-01-30T23:19:15;8.00;94.40
9820;DHT22;4949;48.482;9.206;2024-01-30T23:24:19;8.00;94.40
9820;DHT22;4949;48.482;9.206;2024-01-30T23:29:22;7.90;94.40
9820;DHT22;4949;48.482;9.206;2024-01-30T23:34:22;7.90;94.50
9820;DHT22;4949;48.482;9.206;2024-01-30T23:39:23;8.00;94.40
9820;DHT22;4949;48.482;9.206;2024-01-30T23:44:24;8.50;94.40
9820;DHT22;4949;48.482;9.206;2024-01-30T23:49:25;8.20;93.80
9820;DHT22;4949;48.482;9.206;2024-01-30T23:54:26;8.20;93.90
9820;DHT22;4949;48.482;9.206;2024-01-30T23:59:26;8.20;93.70
